KPAM/PAM METAR and TAF weather

Enter ICAO airport designator
Station Type Date Time Source
KPAM METAR 2019/10/14 05:56 UTC NOAA

KPAM 140556Z AUTO 07004KT 10SM SCT021 24/22 A3002 RMK AO2 SLP169 T02380220 10260 20232 402980192 58003 $


Station Type Date Time Source
KPAM Decoded METAR 2019/10/14 05:56 UTC NOAA

Tyndall Air Force Base, FL, United States (KPAM) 30-04N 085-35W 13M
Oct 14, 2019 - 01:56 AM EDT / 2019.10.14 0556 UTC
Wind: from the ENE (070 degrees) at 5 MPH (4 KT):0
Visibility: 10 mile(s):0
Sky conditions: partly cloudy
Temperature: 74.8 F (23.8 C)
Dew Point: 71.6 F (22.0 C)
Relative Humidity: 89%
Pressure (altimeter): 30.02 in. Hg (1016 hPa)
Pressure tendency: 0.01 inches (0.3 hPa) lower than three hours ago
ob: KPAM 140556Z AUTO 07004KT 10SM SCT021 24/22 A3002 RMK AO2 SLP169 T02380220 10260 20232 402980192 58003
cycle: 6

Station Type Date Time Source
KPAM TAF 2019/10/11 22:03 UTC NOAA

TAF
AMD KPAM 112257Z 1122/1224 07009KT 9999 BKN050 QNH2998INS
BECMG 1201/1202 12007KT 9999 FEW050 QNH3001INS
BECMG 1212/1213 10009KT 9999 SCT150 QNH3000INS TX30/1220Z TN19/1211Z LAST NO
AMDS AFT 1122 NEXT 1510

Example: see airport list